createdAt,value
2022-12-11T00:03:43.858Z,99751.80
2022-12-11T00:08:47.683Z,99749.60
2022-12-11T00:13:51.290Z,99743.80
2022-12-11T00:18:55.832Z,99735.80
2022-12-11T00:23:59.054Z,99734.60
2022-12-11T00:29:02.171Z,99727.80
2022-12-11T00:34:05.252Z,99729.20
2022-12-11T00:39:08.672Z,99728.00
2022-12-11T00:44:11.875Z,99722.20
2022-12-11T00:49:14.978Z,99737.60
2022-12-11T00:54:18.296Z,99732.40
2022-12-11T00:59:21.498Z,99731.80
2022-12-11T01:04:24.839Z,99736.60
2022-12-11T01:09:47.094Z,99736.40
2022-12-11T01:14:50.373Z,99732.00
2022-12-11T01:19:56.894Z,99727.00
2022-12-11T01:24:59.970Z,99726.20
2022-12-11T01:30:06.056Z,99730.80
2022-12-11T01:35:11.497Z,99722.00
2022-12-11T01:40:19.129Z,99708.80
2022-12-11T01:45:23.805Z,99706.00
2022-12-11T01:50:32.076Z,99714.80
2022-12-11T01:55:39.061Z,99720.20
2022-12-11T02:00:42.301Z,99722.20
2022-12-11T02:05:46.013Z,99713.20
2022-12-11T02:11:11.952Z,99709.60
2022-12-11T02:16:29.987Z,99711.80
2022-12-11T02:21:42.007Z,99704.60
2022-12-11T02:27:11.039Z,99708.60
2022-12-11T02:32:23.870Z,99701.80
2022-12-11T02:37:31.222Z,99698.80
2022-12-11T02:42:38.073Z,99711.40
2022-12-11T02:47:46.231Z,99703.60
2022-12-11T02:52:53.965Z,99697.40
2022-12-11T02:58:06.534Z,99677.00
2022-12-11T03:03:09.651Z,99680.40
2022-12-11T03:08:17.528Z,99679.20
2022-12-11T03:13:23.017Z,99676.00
2022-12-11T03:19:09.637Z,99677.60
2022-12-11T03:24:21.667Z,99680.20
2022-12-11T03:29:35.395Z,99674.80
2022-12-11T03:34:59.905Z,99664.80
2022-12-11T03:40:12.575Z,99653.00
2022-12-11T03:45:18.613Z,99661.60
2022-12-11T03:50:24.983Z,99652.40
2022-12-11T03:55:30.526Z,99648.00
2022-12-11T04:00:34.135Z,99653.60
2022-12-11T04:05:37.204Z,99654.40
2022-12-11T04:10:41.391Z,99648.00
2022-12-11T04:15:44.571Z,99649.40
2022-12-11T04:21:06.490Z,99647.00
2022-12-11T04:26:20.230Z,99642.40
2022-12-11T04:31:23.955Z,99646.20
2022-12-11T04:36:27.117Z,99638.60
2022-12-11T04:41:30.282Z,99641.20
2022-12-11T04:46:33.918Z,99648.40
2022-12-11T04:51:37.109Z,99646.60
2022-12-11T04:56:40.230Z,99650.20
2022-12-11T05:01:43.557Z,99647.20
2022-12-11T05:06:48.991Z,99646.00
2022-12-11T05:11:53.013Z,99643.20
2022-12-11T05:16:56.129Z,99633.40
2022-12-11T05:21:59.263Z,99627.60
2022-12-11T05:27:02.269Z,99633.40
2022-12-11T05:32:05.648Z,99639.20
2022-12-11T05:37:08.751Z,99628.20
2022-12-11T05:42:11.963Z,99629.40
2022-12-11T05:47:15.274Z,99625.20
2022-12-11T05:52:18.384Z,99636.60
2022-12-11T05:57:21.481Z,99638.40
2022-12-11T06:02:24.799Z,99636.20
2022-12-11T06:07:28.206Z,99645.00
2022-12-11T06:12:32.170Z,99639.20
2022-12-11T06:17:35.239Z,99640.80
2022-12-11T06:22:38.451Z,99633.80
2022-12-11T06:27:41.553Z,99626.20
2022-12-11T06:32:45.375Z,99625.40
2022-12-11T06:37:50.556Z,99638.00
2022-12-11T06:42:55.274Z,99635.40
2022-12-11T06:47:59.411Z,99630.60
2022-12-11T06:53:02.526Z,99629.60
2022-12-11T06:58:06.233Z,99631.40
2022-12-11T07:03:10.491Z,99622.40
2022-12-11T07:08:13.764Z,99631.20
2022-12-11T07:13:17.088Z,99624.60
2022-12-11T07:18:20.195Z,99624.00
2022-12-11T07:23:23.545Z,99619.80
2022-12-11T07:28:26.715Z,99614.40
2022-12-11T07:33:29.831Z,99607.80
2022-12-11T07:38:33.859Z,99601.80
2022-12-11T07:43:37.390Z,99602.00
2022-12-11T07:48:42.739Z,99599.00
2022-12-11T07:53:49.615Z,99604.00
2022-12-11T07:58:52.826Z,99605.80
2022-12-11T08:03:56.843Z,99608.00
2022-12-11T08:09:03.713Z,99609.60
2022-12-11T08:14:08.186Z,99604.80
2022-12-11T08:19:15.384Z,99613.40
2022-12-11T08:24:20.960Z,99603.80
2022-12-11T08:29:24.283Z,99599.60
2022-12-11T08:34:27.660Z,99607.00
2022-12-11T08:39:31.188Z,99602.00
2022-12-11T08:44:34.296Z,99600.80
2022-12-11T08:49:37.708Z,99588.00
2022-12-11T08:54:42.148Z,99590.40
2022-12-11T08:59:46.483Z,99576.60
2022-12-11T09:04:49.589Z,99576.60
2022-12-11T09:09:55.690Z,99573.60
2022-12-11T09:14:58.777Z,99579.20
2022-12-11T09:20:02.434Z,99575.40
2022-12-11T09:25:06.692Z,99562.20
2022-12-11T09:30:10.566Z,99561.20
2022-12-11T09:35:13.953Z,99552.40
2022-12-11T09:40:17.268Z,99540.60
2022-12-11T09:45:21.304Z,99521.60
2022-12-11T09:50:29.495Z,99516.60
2022-12-11T09:56:07.770Z,99515.00
2022-12-11T10:01:38.958Z,99503.80
2022-12-11T10:07:18.591Z,99506.60
2022-12-11T10:12:52.586Z,99502.00
2022-12-11T10:18:04.605Z,99492.20
2022-12-11T10:23:17.973Z,99484.80
2022-12-11T10:28:22.097Z,99481.60
2022-12-11T10:33:43.128Z,99483.40
2022-12-11T10:38:47.635Z,99475.00
2022-12-11T10:43:53.782Z,99465.20
2022-12-11T10:49:01.758Z,99457.00
2022-12-11T10:54:38.353Z,99470.80
2022-12-11T10:59:49.867Z,99462.80
2022-12-11T11:04:56.814Z,99456.80
2022-12-11T11:10:11.840Z,99449.60
2022-12-11T11:15:29.569Z,99437.60
2022-12-11T11:20:34.607Z,99424.00
2022-12-11T11:25:37.764Z,99416.60
2022-12-11T11:30:54.239Z,99418.00
2022-12-11T11:36:20.368Z,99407.40
2022-12-11T11:41:40.999Z,99415.00
2022-12-11T11:46:57.645Z,99411.60
2022-12-11T11:52:21.959Z,99404.80
2022-12-11T11:57:57.453Z,99396.80
2022-12-11T12:03:12.548Z,99392.20
2022-12-11T12:08:41.870Z,99386.80
2022-12-11T12:14:43.626Z,99400.60
2022-12-11T12:20:23.615Z,99387.00
2022-12-11T12:25:44.992Z,99375.40
2022-12-11T12:30:56.948Z,99376.80
2022-12-11T12:36:20.148Z,99364.80
2022-12-11T12:41:43.387Z,99363.60
2022-12-11T12:46:52.128Z,99349.60
2022-12-11T12:52:00.201Z,99352.60
2022-12-11T12:57:05.438Z,99341.60
2022-12-11T13:02:17.580Z,99347.60
2022-12-11T13:07:28.587Z,99330.40
2022-12-11T13:12:46.264Z,99322.20
2022-12-11T13:17:49.502Z,99326.40
2022-12-11T13:23:07.837Z,99322.20
2022-12-11T13:28:39.449Z,99318.80
2022-12-11T13:33:54.903Z,99321.60
2022-12-11T13:39:30.697Z,99313.60
2022-12-11T13:44:41.775Z,99306.00
2022-12-11T13:49:53.583Z,99306.20
2022-12-11T13:54:59.557Z,99300.40
2022-12-11T14:00:02.617Z,99300.40
2022-12-11T14:05:11.245Z,99292.00
2022-12-11T14:10:21.674Z,99290.40
2022-12-11T14:15:27.374Z,99282.60
2022-12-11T14:20:34.524Z,99270.40
2022-12-11T14:25:37.665Z,99266.60
2022-12-11T14:30:50.287Z,99258.60
2022-12-11T14:35:56.348Z,99247.80
2022-12-11T14:41:19.843Z,99245.00
2022-12-11T14:46:40.659Z,99237.60
2022-12-11T14:51:45.376Z,99245.60
2022-12-11T14:56:48.925Z,99230.20
2022-12-11T15:02:19.660Z,99230.40
2022-12-11T15:07:24.624Z,99223.40
2022-12-11T15:12:28.184Z,99213.20
2022-12-11T15:17:33.203Z,99214.20
2022-12-11T15:22:37.422Z,99216.00
2022-12-11T15:27:40.640Z,99210.80
2022-12-11T15:32:43.949Z,99212.80
2022-12-11T15:37:57.767Z,99208.40
2022-12-11T15:43:03.781Z,99195.80
2022-12-11T15:48:11.463Z,99196.20
2022-12-11T15:53:14.593Z,99202.60
2022-12-11T15:58:23.290Z,99201.40
2022-12-11T16:03:26.540Z,99196.20
2022-12-11T16:08:31.140Z,99186.60
2022-12-11T16:13:34.493Z,99186.80
2022-12-11T16:18:37.600Z,99184.60
2022-12-11T16:23:40.810Z,99178.20
2022-12-11T16:28:44.122Z,99171.20
2022-12-11T16:33:47.429Z,99170.60
2022-12-11T16:38:53.836Z,99162.80
2022-12-11T16:43:57.737Z,99158.40
2022-12-11T16:49:01.048Z,99158.80
2022-12-11T16:54:04.775Z,99165.00
2022-12-11T16:59:08.491Z,99166.00
2022-12-11T17:04:11.813Z,99156.00
2022-12-11T17:09:15.112Z,99151.00
2022-12-11T17:14:18.321Z,99149.00
2022-12-11T17:19:21.737Z,99147.00
2022-12-11T17:24:25.252Z,99150.20
2022-12-11T17:29:28.570Z,99139.60
2022-12-11T17:34:37.577Z,99144.80
2022-12-11T17:39:41.546Z,99150.40
2022-12-11T17:44:45.866Z,99151.40
2022-12-11T17:49:49.111Z,99148.00
2022-12-11T17:54:53.219Z,99147.60
2022-12-11T17:59:56.870Z,99134.00
2022-12-11T18:05:00.235Z,99132.80
2022-12-11T18:10:04.676Z,99128.60
2022-12-11T18:15:09.172Z,99138.40
2022-12-11T18:20:17.146Z,99131.40
2022-12-11T18:25:20.545Z,99122.80
2022-12-11T18:30:25.294Z,99122.80
2022-12-11T18:35:30.056Z,99126.80
2022-12-11T18:40:33.269Z,99122.60
2022-12-11T18:45:41.535Z,99116.60
2022-12-11T18:50:47.628Z,99121.80
2022-12-11T18:55:52.586Z,99116.60
2022-12-11T19:01:08.476Z,99113.60
2022-12-11T19:06:20.239Z,99110.80
2022-12-11T19:11:27.751Z,99115.40
2022-12-11T19:16:40.843Z,99114.20
2022-12-11T19:21:45.591Z,99109.80
2022-12-11T19:26:49.536Z,99108.20
2022-12-11T19:31:54.301Z,99099.40
2022-12-11T19:36:57.898Z,99095.60
2022-12-11T19:42:01.208Z,99090.20
2022-12-11T19:47:05.477Z,99087.80
2022-12-11T19:52:08.697Z,99090.40
2022-12-11T19:57:12.059Z,99092.20
2022-12-11T20:02:15.718Z,99090.00
2022-12-11T20:07:19.410Z,99087.60
2022-12-11T20:12:22.815Z,99086.60
2022-12-11T20:17:26.089Z,99081.00
2022-12-11T20:22:29.580Z,99081.00
2022-12-11T20:27:32.753Z,99070.20
2022-12-11T20:32:37.234Z,99064.00
2022-12-11T20:37:41.021Z,99064.80
2022-12-11T20:42:44.319Z,99062.40
2022-12-11T20:47:48.650Z,99054.60
2022-12-11T20:52:51.863Z,99053.60
2022-12-11T20:57:55.377Z,99047.40
2022-12-11T21:02:58.618Z,99042.60
2022-12-11T21:08:01.870Z,99039.20
2022-12-11T21:13:05.148Z,99037.80
2022-12-11T21:18:10.266Z,99035.40
2022-12-11T21:23:13.473Z,99027.20
2022-12-11T21:28:16.778Z,99008.60
2022-12-11T21:33:20.293Z,99009.60
2022-12-11T21:38:24.618Z,99008.40
2022-12-11T21:43:27.760Z,99009.60
2022-12-11T21:48:31.262Z,98997.20
2022-12-11T21:53:35.580Z,98986.00
2022-12-11T21:58:42.147Z,98979.80
2022-12-11T22:03:45.512Z,98980.60
2022-12-11T22:08:50.373Z,98965.60
2022-12-11T22:13:53.848Z,98963.20
2022-12-11T22:18:57.056Z,98964.40
2022-12-11T22:24:00.883Z,98958.20
2022-12-11T22:29:04.091Z,98961.80
2022-12-11T22:34:07.304Z,98956.20
2022-12-11T22:39:10.606Z,98954.20
2022-12-11T22:44:18.593Z,98946.20
2022-12-11T22:49:21.737Z,98946.20
2022-12-11T22:54:25.261Z,98942.00
2022-12-11T22:59:28.771Z,98940.80
2022-12-11T23:04:32.288Z,98936.60
2022-12-11T23:09:35.507Z,98931.80
2022-12-11T23:14:40.852Z,98926.80
2022-12-11T23:19:46.309Z,98928.20
2022-12-11T23:24:49.526Z,98927.20
2022-12-11T23:29:52.733Z,98927.40
2022-12-11T23:34:55.937Z,98923.20
2022-12-11T23:39:59.152Z,98921.00
2022-12-11T23:45:02.255Z,98919.20
2022-12-11T23:50:06.281Z,98921.20
2022-12-11T23:55:10.898Z,98925.40
